createdAt,value
2019-02-08T00:01:00.597Z,1020.94
2019-02-08T00:02:00.917Z,1020.99
2019-02-08T00:02:59.977Z,1021
2019-02-08T00:03:59.944Z,1020.98
2019-02-08T00:04:59.732Z,1020.97
2019-02-08T00:05:59.939Z,1020.99
2019-02-08T00:07:01.130Z,1020.99
2019-02-08T00:07:59.806Z,1021.02
2019-02-08T00:08:59.908Z,1021.04
2019-02-08T00:09:59.753Z,1021.03
2019-02-08T00:10:59.949Z,1021.01
2019-02-08T00:11:59.912Z,1021.06
2019-02-08T00:12:59.760Z,1021.1
2019-02-08T00:14:00.458Z,1021.08
2019-02-08T00:15:00.036Z,1021.13
2019-02-08T00:16:00.274Z,1021.13
2019-02-08T00:16:59.950Z,1021.12
2019-02-08T00:17:59.758Z,1021.12
2019-02-08T00:18:59.774Z,1021.11
2019-02-08T00:19:59.924Z,1021.09
2019-02-08T00:21:00.122Z,1021.17
2019-02-08T00:22:00.617Z,1021.13
2019-02-08T00:23:00.221Z,1021.12
2019-02-08T00:23:59.897Z,1021.14
2019-02-08T00:25:00.586Z,1021.14
2019-02-08T00:26:00.722Z,1021.15
2019-02-08T00:26:59.745Z,1021.15
2019-02-08T00:27:59.870Z,1021.15
2019-02-08T00:29:00.154Z,1021.2
2019-02-08T00:29:59.784Z,1021.18
2019-02-08T00:30:59.481Z,1021.19
2019-02-08T00:32:00.013Z,1021.18
2019-02-08T00:32:59.981Z,1021.21
2019-02-08T00:33:59.812Z,1021.17
2019-02-08T00:35:01.170Z,1021.14
2019-02-08T00:36:00.087Z,1021.17
2019-02-08T00:37:00.521Z,1021.19
2019-02-08T00:38:00.439Z,1021.17
2019-02-08T00:38:59.841Z,1021.19
2019-02-08T00:39:59.892Z,1021.21
2019-02-08T00:40:59.759Z,1021.23
2019-02-08T00:42:00.316Z,1021.22
2019-02-08T00:43:00.044Z,1021.19
2019-02-08T00:44:01.265Z,1021.18
2019-02-08T00:44:59.741Z,1021.19
2019-02-08T00:45:59.992Z,1021.23
2019-02-08T00:47:00.768Z,1021.21
2019-02-08T00:47:59.773Z,1021.21
2019-02-08T00:49:00.419Z,1021.24
2019-02-08T00:49:59.693Z,1021.29
2019-02-08T00:51:00.005Z,1021.31
2019-02-08T00:52:00.628Z,1021.31
2019-02-08T00:53:00.042Z,1021.35
2019-02-08T00:54:01.150Z,1021.36
2019-02-08T00:54:59.702Z,1021.39
2019-02-08T00:55:59.796Z,1021.37
2019-02-08T00:56:59.807Z,1021.36
2019-02-08T00:58:00.443Z,1021.36
2019-02-08T00:59:00.576Z,1021.38
2019-02-08T00:59:59.958Z,1021.4
2019-02-08T01:00:59.759Z,1021.4
2019-02-08T01:02:00.249Z,1021.45
2019-02-08T01:02:59.482Z,1021.43
2019-02-08T01:03:59.940Z,1021.46
2019-02-08T01:04:59.732Z,1021.41
2019-02-08T01:05:59.634Z,1021.39
2019-02-08T01:07:00.529Z,1021.36
2019-02-08T01:08:01.265Z,1021.34
2019-02-08T01:09:00.221Z,1021.33
2019-02-08T01:10:00.896Z,1021.32
2019-02-08T01:11:00.700Z,1021.25
2019-02-08T01:12:00.128Z,1021.27
2019-02-08T01:13:00.149Z,1021.26
2019-02-08T01:14:00.579Z,1021.26
2019-02-08T01:15:00.418Z,1021.24
2019-02-08T01:15:59.893Z,1021.27
2019-02-08T01:17:00.667Z,1021.3
2019-02-08T01:18:00.111Z,1021.28
2019-02-08T01:19:00.299Z,1021.3
2019-02-08T01:19:59.927Z,1021.29
2019-02-08T01:21:00.003Z,1021.31
2019-02-08T01:21:59.790Z,1021.27
2019-02-08T01:22:59.936Z,1021.27
2019-02-08T01:24:00.517Z,1021.25
2019-02-08T01:24:59.916Z,1021.26
2019-02-08T01:26:00.122Z,1021.26
2019-02-08T01:27:00.506Z,1021.29
2019-02-08T01:28:00.264Z,1021.26
2019-02-08T01:29:00.247Z,1021.32
2019-02-08T01:30:00.307Z,1021.37
2019-02-08T01:31:00.122Z,1021.36
2019-02-08T01:31:59.888Z,1021.39
2019-02-08T01:32:59.630Z,1021.4
2019-02-08T01:34:00.736Z,1021.39
2019-02-08T01:34:59.910Z,1021.37
2019-02-08T01:35:59.683Z,1021.37
2019-02-08T01:36:59.998Z,1021.36
2019-02-08T01:37:59.918Z,1021.38
2019-02-08T01:39:00.322Z,1021.39
2019-02-08T01:40:01.550Z,1021.39
2019-02-08T01:41:01.690Z,1021.42
2019-02-08T01:42:00.230Z,1021.41
2019-02-08T01:43:00.142Z,1021.45
2019-02-08T01:43:59.744Z,1021.42
2019-02-08T01:44:59.785Z,1021.44
2019-02-08T01:45:59.707Z,1021.48
2019-02-08T01:46:59.860Z,1021.5
2019-02-08T01:47:59.850Z,1021.5
2019-02-08T01:48:59.979Z,1021.45
2019-02-08T01:49:59.830Z,1021.47
2019-02-08T01:50:59.993Z,1021.48
2019-02-08T01:52:00.005Z,1021.46
2019-02-08T01:52:59.608Z,1021.43
2019-02-08T01:53:59.917Z,1021.45
2019-02-08T01:54:59.786Z,1021.46
2019-02-08T01:55:59.839Z,1021.41
2019-02-08T01:56:59.853Z,1021.39
2019-02-08T01:57:59.809Z,1021.38
2019-02-08T01:58:59.850Z,1021.39
2019-02-08T01:59:59.763Z,1021.35
2019-02-08T02:00:59.633Z,1021.33
2019-02-08T02:01:59.720Z,1021.31
2019-02-08T02:03:00.090Z,1021.33
2019-02-08T02:03:59.983Z,1021.33
2019-02-08T02:04:59.989Z,1021.33
2019-02-08T02:05:59.725Z,1021.35
2019-02-08T02:06:59.644Z,1021.39
2019-02-08T02:08:00.055Z,1021.4
2019-02-08T02:08:59.816Z,1021.37
2019-02-08T02:09:59.690Z,1021.4
2019-02-08T02:11:00.231Z,1021.42
2019-02-08T02:11:59.952Z,1021.4
2019-02-08T02:12:59.579Z,1021.38
2019-02-08T02:13:59.810Z,1021.39
2019-02-08T02:15:00.426Z,1021.37
2019-02-08T02:16:00.184Z,1021.41
2019-02-08T02:16:59.928Z,1021.39
2019-02-08T02:18:00.302Z,1021.38
2019-02-08T02:18:59.688Z,1021.36
2019-02-08T02:20:00.867Z,1021.36
2019-02-08T02:20:59.411Z,1021.35
2019-02-08T02:22:00.558Z,1021.34
2019-02-08T02:22:59.607Z,1021.32
2019-02-08T02:24:00.266Z,1021.34
2019-02-08T02:24:59.931Z,1021.31
2019-02-08T02:26:00.239Z,1021.32
2019-02-08T02:26:59.644Z,1021.3
2019-02-08T02:27:59.556Z,1021.3
2019-02-08T02:29:00.471Z,1021.31
2019-02-08T02:29:59.805Z,1021.29
2019-02-08T02:30:59.983Z,1021.31
2019-02-08T02:31:59.894Z,1021.35
2019-02-08T02:33:00.902Z,1021.33
2019-02-08T02:33:59.752Z,1021.32
2019-02-08T02:34:59.737Z,1021.32
2019-02-08T02:36:00.847Z,1021.35
2019-02-08T02:37:00.337Z,1021.35
2019-02-08T02:37:59.835Z,1021.35
2019-02-08T02:38:59.696Z,1021.36
2019-02-08T02:39:59.916Z,1021.4
2019-02-08T02:41:01.521Z,1021.4
2019-02-08T02:42:00.038Z,1021.4
2019-02-08T02:42:59.950Z,1021.4
2019-02-08T02:44:00.625Z,1021.45
2019-02-08T02:45:00.080Z,1021.41
2019-02-08T02:45:59.675Z,1021.37
2019-02-08T02:47:00.318Z,1021.42
2019-02-08T02:47:59.775Z,1021.37
2019-02-08T02:48:59.802Z,1021.38
2019-02-08T02:50:00.328Z,1021.4
2019-02-08T02:51:00.278Z,1021.34
2019-02-08T02:51:59.411Z,1021.33
2019-02-08T02:53:00.064Z,1021.32
2019-02-08T02:54:05.270Z,1021.29
2019-02-08T02:54:59.732Z,1021.3
2019-02-08T02:55:59.947Z,1021.31
2019-02-08T02:56:59.729Z,1021.3
2019-02-08T02:57:59.636Z,1021.29
2019-02-08T02:58:59.828Z,1021.28
2019-02-08T02:59:59.782Z,1021.27
2019-02-08T03:01:00.350Z,1021.26
2019-02-08T03:01:59.751Z,1021.25
2019-02-08T03:03:00.131Z,1021.27
2019-02-08T03:04:00.231Z,1021.28
2019-02-08T03:04:59.785Z,1021.27
2019-02-08T03:05:59.465Z,1021.29
2019-02-08T03:07:00.037Z,1021.22
2019-02-08T03:08:00.251Z,1021.23
2019-02-08T03:08:59.529Z,1021.27
2019-02-08T03:10:00.220Z,1021.25
2019-02-08T03:11:01.422Z,1021.21
2019-02-08T03:11:59.964Z,1021.21
2019-02-08T03:13:00.276Z,1021.24
2019-02-08T03:13:59.970Z,1021.25
2019-02-08T03:15:00.000Z,1021.26
2019-02-08T03:15:59.691Z,1021.26
2019-02-08T03:16:59.993Z,1021.26
2019-02-08T03:18:00.028Z,1021.29
2019-02-08T03:18:59.714Z,1021.23
2019-02-08T03:19:59.857Z,1021.22
2019-02-08T03:20:59.973Z,1021.21
2019-02-08T03:21:59.653Z,1021.21
2019-02-08T03:23:00.149Z,1021.2
2019-02-08T03:23:59.835Z,1021.2
2019-02-08T03:24:59.751Z,1021.23
2019-02-08T03:25:59.716Z,1021.21
2019-02-08T03:27:01.660Z,1021.24
2019-02-08T03:27:59.762Z,1021.22
2019-02-08T03:28:59.837Z,1021.23
2019-02-08T03:29:59.785Z,1021.24
2019-02-08T03:31:00.024Z,1021.21
2019-02-08T03:31:59.887Z,1021.23
2019-02-08T03:32:59.431Z,1021.22
2019-02-08T03:33:59.910Z,1021.27
2019-02-08T03:34:59.830Z,1021.26
2019-02-08T03:36:01.500Z,1021.31
2019-02-08T03:36:59.935Z,1021.29
2019-02-08T03:37:59.935Z,1021.28
2019-02-08T03:38:59.822Z,1021.31
2019-02-08T03:40:00.319Z,1021.32
2019-02-08T03:40:59.961Z,1021.27
2019-02-08T03:42:00.015Z,1021.28
2019-02-08T03:42:59.821Z,1021.27
2019-02-08T03:43:59.786Z,1021.27
2019-02-08T03:44:59.738Z,1021.24
2019-02-08T03:45:59.948Z,1021.26
2019-02-08T03:47:00.122Z,1021.3
2019-02-08T03:48:00.032Z,1021.25
2019-02-08T03:49:00.348Z,1021.28
2019-02-08T03:49:59.530Z,1021.29
2019-02-08T03:51:01.552Z,1021.29
2019-02-08T03:51:59.750Z,1021.31
2019-02-08T03:52:59.929Z,1021.33
2019-02-08T03:53:59.812Z,1021.31
2019-02-08T03:54:59.964Z,1021.3
2019-02-08T03:55:59.969Z,1021.32
2019-02-08T03:56:59.644Z,1021.29
2019-02-08T03:58:00.005Z,1021.32
2019-02-08T03:59:00.635Z,1021.27
2019-02-08T04:00:00.268Z,1021.29
2019-02-08T04:01:00.329Z,1021.29
2019-02-08T04:02:00.325Z,1021.29
2019-02-08T04:02:59.766Z,1021.31
2019-02-08T04:04:00.021Z,1021.27
2019-02-08T04:04:59.655Z,1021.31
2019-02-08T04:06:00.032Z,1021.29
2019-02-08T04:07:00.300Z,1021.31
2019-02-08T04:08:00.170Z,1021.3
2019-02-08T04:09:00.029Z,1021.3
2019-02-08T04:09:59.726Z,1021.29
2019-02-08T04:11:00.186Z,1021.22
2019-02-08T04:12:00.191Z,1021.27
2019-02-08T04:12:59.767Z,1021.27
2019-02-08T04:13:59.686Z,1021.25
2019-02-08T04:15:01.530Z,1021.19
2019-02-08T04:16:00.010Z,1021.21
2019-02-08T04:17:00.016Z,1021.21
2019-02-08T04:17:59.726Z,1021.24
2019-02-08T04:18:59.531Z,1021.24
2019-02-08T04:19:59.542Z,1021.2
2019-02-08T04:20:59.886Z,1021.23
2019-02-08T04:21:59.771Z,1021.27
2019-02-08T04:23:00.266Z,1021.29
2019-02-08T04:23:59.685Z,1021.28
2019-02-08T04:24:59.832Z,1021.3
2019-02-08T04:25:59.922Z,1021.3
2019-02-08T04:26:59.585Z,1021.29
2019-02-08T04:28:00.301Z,1021.26
2019-02-08T04:29:00.508Z,1021.27
2019-02-08T04:29:59.818Z,1021.29
2019-02-08T04:30:59.924Z,1021.25
2019-02-08T04:32:00.007Z,1021.25
2019-02-08T04:33:01.278Z,1021.27
2019-02-08T04:33:59.741Z,1021.33
2019-02-08T04:35:00.164Z,1021.34
2019-02-08T04:35:59.505Z,1021.34
2019-02-08T04:37:00.061Z,1021.39
2019-02-08T04:38:00.071Z,1021.36
2019-02-08T04:38:59.843Z,1021.37
2019-02-08T04:40:00.416Z,1021.36
2019-02-08T04:41:01.391Z,1021.36
2019-02-08T04:42:00.255Z,1021.31
2019-02-08T04:43:00.075Z,1021.33
2019-02-08T04:44:00.033Z,1021.31
2019-02-08T04:44:59.656Z,1021.31
2019-02-08T04:45:59.890Z,1021.29
2019-02-08T04:47:01.461Z,1021.31
2019-02-08T04:47:59.748Z,1021.3
2019-02-08T04:48:59.471Z,1021.32
2019-02-08T04:50:00.008Z,1021.28
2019-02-08T04:50:59.804Z,1021.28
2019-02-08T04:51:59.854Z,1021.31
2019-02-08T04:53:00.177Z,1021.29
2019-02-08T04:54:01.568Z,1021.3
2019-02-08T04:54:59.626Z,1021.29
2019-02-08T04:55:59.772Z,1021.31
2019-02-08T04:56:59.807Z,1021.3
2019-02-08T04:58:00.024Z,1021.32
2019-02-08T04:58:59.749Z,1021.31
2019-02-08T05:00:01.428Z,1021.31
2019-02-08T05:01:00.633Z,1021.31
2019-02-08T05:02:00.382Z,1021.29
2019-02-08T05:02:59.937Z,1021.28
2019-02-08T05:04:00.272Z,1021.28
2019-02-08T05:04:59.749Z,1021.23
2019-02-08T05:05:59.965Z,1021.24
2019-02-08T05:06:59.664Z,1021.19
2019-02-08T05:07:59.881Z,1021.21
2019-02-08T05:08:59.872Z,1021.18
2019-02-08T05:10:00.341Z,1021.19
2019-02-08T05:10:59.796Z,1021.22
2019-02-08T05:11:59.810Z,1021.23
2019-02-08T05:12:59.565Z,1021.25
2019-02-08T05:13:59.925Z,1021.26
2019-02-08T05:14:59.908Z,1021.23
2019-02-08T05:15:59.757Z,1021.24
2019-02-08T05:16:59.963Z,1021.22
2019-02-08T05:18:01.582Z,1021.2
2019-02-08T05:18:59.601Z,1021.18
2019-02-08T05:19:59.955Z,1021.23
2019-02-08T05:20:59.853Z,1021.18
2019-02-08T05:21:59.778Z,1021.19
2019-02-08T05:23:00.407Z,1021.21
2019-02-08T05:23:59.875Z,1021.18
2019-02-08T05:24:59.743Z,1021.19
2019-02-08T05:25:59.947Z,1021.18
2019-02-08T05:26:59.408Z,1021.16
2019-02-08T05:27:59.907Z,1021.17
2019-02-08T05:29:01.401Z,1021.19
2019-02-08T05:29:59.621Z,1021.21
2019-02-08T05:30:59.943Z,1021.19
2019-02-08T05:31:59.789Z,1021.19
2019-02-08T05:33:00.087Z,1021.2
2019-02-08T05:33:59.673Z,1021.2
2019-02-08T05:35:00.603Z,1021.17
2019-02-08T05:35:59.512Z,1021.22
2019-02-08T05:37:01.504Z,1021.22
2019-02-08T05:37:59.572Z,1021.23
2019-02-08T05:39:00.088Z,1021.25
2019-02-08T05:39:59.699Z,1021.26
2019-02-08T05:41:01.399Z,1021.28
2019-02-08T05:41:59.837Z,1021.28
2019-02-08T05:42:59.713Z,1021.24
2019-02-08T05:43:59.717Z,1021.23
2019-02-08T05:44:59.632Z,1021.23
2019-02-08T05:45:59.928Z,1021.16
2019-02-08T05:46:59.463Z,1021.17
2019-02-08T05:47:59.977Z,1021.15
2019-02-08T05:49:00.056Z,1021.17
2019-02-08T05:50:00.550Z,1021.16
2019-02-08T05:50:59.827Z,1021.17
2019-02-08T05:51:59.913Z,1021.21
2019-02-08T05:52:59.814Z,1021.21
2019-02-08T05:53:59.692Z,1021.2
2019-02-08T05:54:59.625Z,1021.23
2019-02-08T05:55:59.931Z,1021.23
2019-02-08T05:56:59.851Z,1021.22
2019-02-08T05:57:59.535Z,1021.21
2019-02-08T05:59:01.109Z,1021.28
2019-02-08T06:00:00.286Z,1021.26
2019-02-08T06:01:01.296Z,1021.24
2019-02-08T06:02:00.074Z,1021.25
2019-02-08T06:02:59.747Z,1021.26
2019-02-08T06:03:59.873Z,1021.28
2019-02-08T06:04:59.636Z,1021.26
2019-02-08T06:05:59.825Z,1021.24
2019-02-08T06:06:59.570Z,1021.23
2019-02-08T06:08:00.247Z,1021.22
2019-02-08T06:08:59.465Z,1021.21
2019-02-08T06:09:59.900Z,1021.19
2019-02-08T06:10:59.979Z,1021.23
2019-02-08T06:11:59.701Z,1021.22
2019-02-08T06:13:00.023Z,1021.19
2019-02-08T06:14:00.247Z,1021.2
2019-02-08T06:14:59.988Z,1021.19
2019-02-08T06:15:59.774Z,1021.23
2019-02-08T06:17:00.679Z,1021.17
2019-02-08T06:17:59.577Z,1021.14
2019-02-08T06:19:00.238Z,1021.08
2019-02-08T06:20:00.272Z,1021.13
2019-02-08T06:20:59.838Z,1021.14
2019-02-08T06:22:00.018Z,1021.1
2019-02-08T06:22:59.712Z,1021.11
2019-02-08T06:23:59.713Z,1021.16
2019-02-08T06:25:04.924Z,1021.12
2019-02-08T06:25:59.770Z,1021.1
2019-02-08T06:27:00.050Z,1021.11
2019-02-08T06:28:00.263Z,1021.12
2019-02-08T06:29:00.051Z,1021.09
2019-02-08T06:30:00.438Z,1021.11
2019-02-08T06:31:00.598Z,1021.1
2019-02-08T06:31:59.659Z,1021.14
2019-02-08T06:32:59.950Z,1021.11
2019-02-08T06:33:59.728Z,1021.1
2019-02-08T06:35:00.282Z,1021.12
2019-02-08T06:35:59.883Z,1021.16
2019-02-08T06:36:59.803Z,1021.15
2019-02-08T06:38:00.169Z,1021.15
2019-02-08T06:38:59.433Z,1021.12
2019-02-08T06:40:00.422Z,1021.16
2019-02-08T06:40:59.450Z,1021.14
2019-02-08T06:41:59.587Z,1021.12
2019-02-08T06:42:59.780Z,1021.17
2019-02-08T06:44:00.490Z,1021.18
2019-02-08T06:44:59.831Z,1021.21
2019-02-08T06:45:59.755Z,1021.24
2019-02-08T06:46:59.515Z,1021.26
2019-02-08T06:48:00.002Z,1021.23
2019-02-08T06:49:00.378Z,1021.23
2019-02-08T06:49:59.888Z,1021.28
2019-02-08T06:51:00.000Z,1021.25
2019-02-08T06:51:59.386Z,1021.32
2019-02-08T06:52:59.493Z,1021.29
2019-02-08T06:53:59.783Z,1021.31
2019-02-08T06:54:59.814Z,1021.28
2019-02-08T06:55:59.846Z,1021.26
2019-02-08T06:56:59.475Z,1021.24
2019-02-08T06:57:59.731Z,1021.2
2019-02-08T06:58:59.772Z,1021.22
2019-02-08T06:59:59.645Z,1021.21
2019-02-08T07:00:59.645Z,1021.24
2019-02-08T07:01:59.848Z,1021.25
2019-02-08T07:02:59.719Z,1021.25
2019-02-08T07:04:01.436Z,1021.27
2019-02-08T07:04:59.654Z,1021.32
2019-02-08T07:05:59.853Z,1021.32
2019-02-08T07:06:59.682Z,1021.32
2019-02-08T07:08:00.192Z,1021.3
2019-02-08T07:09:00.188Z,1021.28
2019-02-08T07:09:59.879Z,1021.29
2019-02-08T07:10:59.910Z,1021.3
2019-02-08T07:11:59.354Z,1021.31
2019-02-08T07:13:00.061Z,1021.32
2019-02-08T07:14:01.352Z,1021.33
2019-02-08T07:14:59.444Z,1021.31
2019-02-08T07:15:59.508Z,1021.32
2019-02-08T07:17:00.693Z,1021.33
2019-02-08T07:17:59.446Z,1021.35
2019-02-08T07:18:59.778Z,1021.35
2019-02-08T07:20:00.294Z,1021.37
2019-02-08T07:20:59.981Z,1021.35
2019-02-08T07:22:00.120Z,1021.34
2019-02-08T07:22:59.564Z,1021.33
2019-02-08T07:24:00.136Z,1021.32
2019-02-08T07:24:59.943Z,1021.3
2019-02-08T07:26:00.755Z,1021.33
2019-02-08T07:27:00.275Z,1021.3
2019-02-08T07:27:59.750Z,1021.31
2019-02-08T07:28:59.949Z,1021.35
2019-02-08T07:30:00.017Z,1021.34
2019-02-08T07:30:59.905Z,1021.32
2019-02-08T07:32:00.389Z,1021.32
2019-02-08T07:32:59.980Z,1021.29
2019-02-08T07:33:59.484Z,1021.32
2019-02-08T07:34:59.959Z,1021.31
2019-02-08T07:36:00.011Z,1021.31
2019-02-08T07:36:59.824Z,1021.31
2019-02-08T07:38:01.536Z,1021.33
2019-02-08T07:38:59.472Z,1021.31
2019-02-08T07:40:00.093Z,1021.33
2019-02-08T07:40:59.305Z,1021.3
2019-02-08T07:41:59.622Z,1021.37
2019-02-08T07:43:00.965Z,1021.35
2019-02-08T07:44:01.424Z,1021.38
2019-02-08T07:44:59.971Z,1021.36
2019-02-08T07:45:59.474Z,1021.3
2019-02-08T07:46:59.677Z,1021.33
2019-02-08T07:48:00.121Z,1021.33
2019-02-08T07:49:01.512Z,1021.33
2019-02-08T07:50:00.009Z,1021.36
2019-02-08T07:50:59.493Z,1021.36
2019-02-08T07:52:00.017Z,1021.35
2019-02-08T07:53:00.419Z,1021.36
2019-02-08T07:53:59.924Z,1021.39
2019-02-08T07:55:01.311Z,1021.38
2019-02-08T07:55:59.972Z,1021.41
2019-02-08T07:57:00.278Z,1021.4
2019-02-08T07:57:59.746Z,1021.39
2019-02-08T07:58:59.753Z,1021.41
2019-02-08T07:59:59.669Z,1021.44
2019-02-08T08:00:59.617Z,1021.42
2019-02-08T08:01:59.545Z,1021.41
2019-02-08T08:03:00.002Z,1021.41
2019-02-08T08:04:01.875Z,1021.42
2019-02-08T08:04:59.414Z,1021.39
2019-02-08T08:05:59.758Z,1021.4
2019-02-08T08:06:59.707Z,1021.42
2019-02-08T08:08:00.593Z,1021.48
2019-02-08T08:08:59.498Z,1021.53
2019-02-08T08:09:59.847Z,1021.53
2019-02-08T08:10:59.693Z,1021.49
2019-02-08T08:11:59.465Z,1021.51
2019-02-08T08:12:59.859Z,1021.55
2019-02-08T08:13:59.453Z,1021.52
2019-02-08T08:14:59.326Z,1021.51
2019-02-08T08:16:00.027Z,1021.52
2019-02-08T08:16:59.907Z,1021.53
2019-02-08T08:18:00.318Z,1021.51
2019-02-08T08:19:00.121Z,1021.49
2019-02-08T08:19:59.942Z,1021.51
2019-02-08T08:20:59.824Z,1021.49
2019-02-08T08:22:00.137Z,1021.46
2019-02-08T08:22:59.838Z,1021.41
2019-02-08T08:23:59.867Z,1021.41
2019-02-08T08:24:59.950Z,1021.41
2019-02-08T08:25:59.662Z,1021.45
2019-02-08T08:26:59.450Z,1021.45
2019-02-08T08:27:59.976Z,1021.45
2019-02-08T08:28:59.976Z,1021.43
2019-02-08T08:29:59.436Z,1021.45
2019-02-08T08:31:00.004Z,1021.44
2019-02-08T08:31:59.502Z,1021.43
2019-02-08T08:33:00.019Z,1021.44
2019-02-08T08:33:59.613Z,1021.4
2019-02-08T08:34:59.923Z,1021.32
2019-02-08T08:35:59.989Z,1021.31
2019-02-08T08:36:59.527Z,1021.32
2019-02-08T08:37:59.762Z,1021.3
2019-02-08T08:38:59.859Z,1021.34
2019-02-08T08:39:59.552Z,1021.33
2019-02-08T08:40:59.863Z,1021.36
2019-02-08T08:41:59.912Z,1021.33
2019-02-08T08:42:59.990Z,1021.25
2019-02-08T08:44:00.083Z,1021.27
2019-02-08T08:44:59.943Z,1021.25
2019-02-08T08:45:59.511Z,1021.24
2019-02-08T08:46:59.948Z,1021.18
2019-02-08T08:47:59.718Z,1021.21
2019-02-08T08:49:00.020Z,1021.18
2019-02-08T08:49:59.923Z,1021.16
2019-02-08T08:50:59.748Z,1021.18
2019-02-08T08:51:59.754Z,1021.17
2019-02-08T08:52:59.767Z,1021.14
2019-02-08T08:53:59.586Z,1021.11
2019-02-08T08:54:59.758Z,1021.08
2019-02-08T08:55:59.645Z,1021.1
2019-02-08T08:56:59.410Z,1021.08
2019-02-08T08:58:00.013Z,1021.08
2019-02-08T08:58:59.792Z,1021.07
2019-02-08T08:59:59.499Z,1021.03
2019-02-08T09:01:00.022Z,1021
2019-02-08T09:01:59.846Z,1021.06
2019-02-08T09:03:00.167Z,1021.01
2019-02-08T09:03:59.418Z,1021.04
2019-02-08T09:04:59.446Z,1021.02
2019-02-08T09:05:59.549Z,1021
2019-02-08T09:07:00.139Z,1021.05
2019-02-08T09:08:00.357Z,1021.02
2019-02-08T09:08:59.437Z,1021.06
2019-02-08T09:09:59.758Z,1021.06
2019-02-08T09:11:00.129Z,1021.04
2019-02-08T09:11:59.346Z,1021.06
2019-02-08T09:12:59.707Z,1021.04
2019-02-08T09:13:59.880Z,1021.09
2019-02-08T09:14:59.441Z,1021.04
2019-02-08T09:15:59.904Z,1021.09
2019-02-08T09:16:59.429Z,1021.03
2019-02-08T09:17:59.513Z,1021.03
2019-02-08T09:18:59.651Z,1021.03
2019-02-08T09:19:59.618Z,1021.02
2019-02-08T09:20:59.857Z,1020.99
2019-02-08T09:21:59.633Z,1021.02
2019-02-08T09:22:59.755Z,1021.03
2019-02-08T09:23:59.419Z,1021.03
2019-02-08T09:24:59.392Z,1021.04
2019-02-08T09:25:59.894Z,1021.01
2019-02-08T09:26:59.790Z,1021.05
2019-02-08T09:28:00.651Z,1020.97
2019-02-08T09:28:59.286Z,1020.98
2019-02-08T09:30:00.340Z,1021.01
2019-02-08T09:30:59.865Z,1020.97
2019-02-08T09:31:59.811Z,1020.95
2019-02-08T09:32:59.796Z,1020.96
2019-02-08T09:33:59.334Z,1020.94
2019-02-08T09:34:59.977Z,1020.98
2019-02-08T09:35:59.953Z,1020.92
2019-02-08T09:37:01.323Z,1020.91
2019-02-08T09:37:59.507Z,1020.88
2019-02-08T09:39:01.404Z,1020.89
2019-02-08T09:39:59.534Z,1020.92
2019-02-08T09:40:59.421Z,1020.92
2019-02-08T09:41:59.568Z,1020.86
2019-02-08T09:42:59.615Z,1020.87
2019-02-08T09:43:59.808Z,1020.9
2019-02-08T09:44:59.801Z,1020.87
2019-02-08T09:46:00.030Z,1020.93
2019-02-08T09:46:59.869Z,1020.88
2019-02-08T09:47:59.773Z,1020.86
2019-02-08T09:48:59.843Z,1020.94
2019-02-08T09:49:59.756Z,1020.92
2019-02-08T09:50:59.890Z,1020.9
2019-02-08T09:51:59.539Z,1020.86
2019-02-08T09:52:59.950Z,1020.87
2019-02-08T09:53:59.676Z,1020.87
2019-02-08T09:54:59.529Z,1020.9
2019-02-08T09:56:00.137Z,1020.91
2019-02-08T09:56:59.289Z,1020.89
2019-02-08T09:57:59.719Z,1020.88
2019-02-08T09:59:00.370Z,1020.9
2019-02-08T09:59:59.966Z,1020.86
2019-02-08T10:00:59.922Z,1020.84
2019-02-08T10:01:59.910Z,1020.87
2019-02-08T10:02:59.681Z,1020.85
2019-02-08T10:04:00.164Z,1020.83
2019-02-08T10:04:59.744Z,1020.87
2019-02-08T10:05:59.762Z,1020.85
2019-02-08T10:06:59.438Z,1020.85
2019-02-08T10:07:59.971Z,1020.85
2019-02-08T10:09:00.444Z,1020.88
2019-02-08T10:09:59.679Z,1020.92
2019-02-08T10:10:59.765Z,1020.87
2019-02-08T10:12:01.195Z,1020.85
2019-02-08T10:12:59.353Z,1020.85
2019-02-08T10:14:00.046Z,1020.84
2019-02-08T10:14:59.497Z,1020.78
2019-02-08T10:15:59.956Z,1020.75
2019-02-08T10:16:59.774Z,1020.75
2019-02-08T10:17:59.745Z,1020.74
2019-02-08T10:18:59.762Z,1020.7
2019-02-08T10:20:00.514Z,1020.66
2019-02-08T10:21:00.272Z,1020.64
2019-02-08T10:21:59.528Z,1020.63
2019-02-08T10:22:59.670Z,1020.62
2019-02-08T10:23:59.795Z,1020.55
2019-02-08T10:25:00.731Z,1020.61
2019-02-08T10:26:05.766Z,1020.58
2019-02-08T10:26:59.831Z,1020.51
2019-02-08T10:28:00.017Z,1020.51
2019-02-08T10:29:00.121Z,1020.5
2019-02-08T10:30:00.088Z,1020.55
2019-02-08T10:30:59.507Z,1020.5
2019-02-08T10:32:00.048Z,1020.56
2019-02-08T10:32:59.943Z,1020.46
2019-02-08T10:33:59.464Z,1020.47
2019-02-08T10:34:59.546Z,1020.44
2019-02-08T10:36:01.317Z,1020.44
2019-02-08T10:36:59.917Z,1020.45
2019-02-08T10:37:59.873Z,1020.43
2019-02-08T10:38:59.914Z,1020.42
2019-02-08T10:39:59.736Z,1020.42
2019-02-08T10:40:59.646Z,1020.41
2019-02-08T10:41:59.807Z,1020.38
2019-02-08T10:43:01.414Z,1020.36
2019-02-08T10:43:59.441Z,1020.34
2019-02-08T10:45:00.392Z,1020.34
2019-02-08T10:46:00.039Z,1020.33
2019-02-08T10:46:59.316Z,1020.31
2019-02-08T10:47:59.999Z,1020.25
2019-02-08T10:48:59.957Z,1020.28
2019-02-08T10:49:59.700Z,1020.27
2019-02-08T10:51:00.164Z,1020.26
2019-02-08T10:51:59.810Z,1020.21
2019-02-08T10:53:00.339Z,1020.24
2019-02-08T10:53:59.792Z,1020.22
2019-02-08T10:54:59.739Z,1020.2
2019-02-08T10:56:00.069Z,1020.16
2019-02-08T10:56:59.866Z,1020.15
2019-02-08T10:57:59.465Z,1020.13
2019-02-08T10:59:00.036Z,1020.14
2019-02-08T10:59:59.533Z,1020.18
2019-02-08T11:01:00.064Z,1020.13
2019-02-08T11:01:59.526Z,1020.16
2019-02-08T11:02:59.751Z,1020.2
2019-02-08T11:03:59.665Z,1020.19
2019-02-08T11:04:59.867Z,1020.21
2019-02-08T11:05:59.794Z,1020.17
2019-02-08T11:06:59.929Z,1020.14
2019-02-08T11:08:00.510Z,1020.13
2019-02-08T11:09:01.226Z,1020.13
2019-02-08T11:10:00.259Z,1020.08
2019-02-08T11:11:00.011Z,1020.07
2019-02-08T11:11:59.888Z,1020.03
2019-02-08T11:12:59.807Z,1020.05
2019-02-08T11:13:59.849Z,1020
2019-02-08T11:15:00.011Z,1020.01
2019-02-08T11:16:00.054Z,1020.02
2019-02-08T11:16:59.578Z,1020.06
2019-02-08T11:18:00.400Z,1020.04
2019-02-08T11:19:00.275Z,1020.07
2019-02-08T11:20:00.241Z,1020.01
2019-02-08T11:21:00.001Z,1020.03
2019-02-08T11:21:59.901Z,1020.06
2019-02-08T11:22:59.910Z,1019.99
2019-02-08T11:23:59.911Z,1019.95
2019-02-08T11:24:59.611Z,1020.04
2019-02-08T11:26:01.305Z,1019.98
2019-02-08T11:27:00.154Z,1019.99
2019-02-08T11:27:59.915Z,1019.97
2019-02-08T11:28:59.480Z,1019.92
2019-02-08T11:30:00.249Z,1019.97
2019-02-08T11:30:59.500Z,1019.87
2019-02-08T11:31:59.843Z,1019.88
2019-02-08T11:32:59.419Z,1019.84
2019-02-08T11:33:59.670Z,1019.81
2019-02-08T11:34:59.588Z,1019.77
2019-02-08T11:35:59.558Z,1019.7
2019-02-08T11:36:59.856Z,1019.73
2019-02-08T11:37:59.625Z,1019.68
2019-02-08T11:39:01.325Z,1019.62
2019-02-08T11:39:59.418Z,1019.65
2019-02-08T11:41:00.758Z,1019.59
2019-02-08T11:41:59.794Z,1019.58
2019-02-08T11:42:59.946Z,1019.54
2019-02-08T11:43:59.785Z,1019.5
2019-02-08T11:44:59.793Z,1019.44
2019-02-08T11:45:59.564Z,1019.4
2019-02-08T11:46:59.861Z,1019.4
2019-02-08T11:47:59.260Z,1019.35
2019-02-08T11:49:01.289Z,1019.37
2019-02-08T11:49:59.577Z,1019.37
2019-02-08T11:50:59.440Z,1019.32
2019-02-08T11:52:00.220Z,1019.33
2019-02-08T11:52:59.730Z,1019.3
2019-02-08T11:53:59.864Z,1019.29
2019-02-08T11:54:59.437Z,1019.3
2019-02-08T11:55:59.765Z,1019.28
2019-02-08T11:56:59.931Z,1019.26
2019-02-08T11:57:59.885Z,1019.21
2019-02-08T11:58:59.457Z,1019.19
2019-02-08T11:59:59.608Z,1019.14
2019-02-08T12:00:59.462Z,1019.14
2019-02-08T12:02:01.219Z,1019.09
2019-02-08T12:03:00.489Z,1019.14
2019-02-08T12:04:01.259Z,1019.11
2019-02-08T12:04:59.774Z,1019.08
2019-02-08T12:06:00.128Z,1019.05
2019-02-08T12:06:59.432Z,1019.06
2019-02-08T12:08:00.152Z,1019.04
2019-02-08T12:08:59.723Z,1019.09